sensor_id;sensor_type;location;lat;lon;timestamp;P1;durP1;ratioP1;P2;durP2;ratioP2
52456;SDS011;38369;52.840;7.082;2022-12-18T00:01:36;141.85;;;49.95;;
52456;SDS011;38369;52.840;7.082;2022-12-18T00:04:03;127.90;;;49.60;;
52456;SDS011;38369;52.840;7.082;2022-12-18T00:06:30;145.65;;;52.55;;
52456;SDS011;38369;52.840;7.082;2022-12-18T00:08:58;133.02;;;47.72;;
52456;SDS011;38369;52.840;7.082;2022-12-18T00:11:26;142.13;;;50.70;;
52456;SDS011;38369;52.840;7.082;2022-12-18T00:13:53;122.47;;;48.00;;
52456;SDS011;38369;52.840;7.082;2022-12-18T00:16:20;123.00;;;48.28;;
52456;SDS011;38369;52.840;7.082;2022-12-18T00:18:50;135.82;;;49.20;;
52456;SDS011;38369;52.840;7.082;2022-12-18T00:21:17;139.32;;;48.15;;
52456;SDS011;38369;52.840;7.082;2022-12-18T00:23:44;151.65;;;51.17;;
52456;SDS011;38369;52.840;7.082;2022-12-18T00:26:14;161.63;;;55.58;;
52456;SDS011;38369;52.840;7.082;2022-12-18T00:28:40;154.77;;;54.70;;
52456;SDS011;38369;52.840;7.082;2022-12-18T00:31:09;156.00;;;52.58;;
52456;SDS011;38369;52.840;7.082;2022-12-18T00:33:35;156.10;;;57.75;;
52456;SDS011;38369;52.840;7.082;2022-12-18T00:36:02;151.07;;;51.80;;
52456;SDS011;38369;52.840;7.082;2022-12-18T00:38:28;147.45;;;49.85;;
52456;SDS011;38369;52.840;7.082;2022-12-18T00:40:54;135.30;;;52.25;;
52456;SDS011;38369;52.840;7.082;2022-12-18T00:43:20;147.35;;;52.85;;
52456;SDS011;38369;52.840;7.082;2022-12-18T00:45:46;148.15;;;51.70;;
52456;SDS011;38369;52.840;7.082;2022-12-18T00:48:12;145.27;;;50.78;;
52456;SDS011;38369;52.840;7.082;2022-12-18T00:50:38;147.13;;;51.50;;
52456;SDS011;38369;52.840;7.082;2022-12-18T00:53:05;148.82;;;51.58;;
52456;SDS011;38369;52.840;7.082;2022-12-18T00:55:31;147.73;;;55.17;;
52456;SDS011;38369;52.840;7.082;2022-12-18T00:57:57;173.35;;;53.55;;
52456;SDS011;38369;52.840;7.082;2022-12-18T01:00:23;169.95;;;56.03;;
52456;SDS011;38369;52.840;7.082;2022-12-18T01:02:49;169.68;;;54.42;;
52456;SDS011;38369;52.840;7.082;2022-12-18T01:05:16;172.02;;;56.03;;
52456;SDS011;38369;52.840;7.082;2022-12-18T01:07:42;160.82;;;52.90;;
52456;SDS011;38369;52.840;7.082;2022-12-18T01:10:09;137.38;;;51.83;;
52456;SDS011;38369;52.840;7.082;2022-12-18T01:12:35;133.88;;;51.80;;
52456;SDS011;38369;52.840;7.082;2022-12-18T01:15:02;132.80;;;49.97;;
52456;SDS011;38369;52.840;7.082;2022-12-18T01:17:28;115.93;;;45.70;;
52456;SDS011;38369;52.840;7.082;2022-12-18T01:19:54;123.38;;;45.35;;
52456;SDS011;38369;52.840;7.082;2022-12-18T01:22:20;121.10;;;45.53;;
52456;SDS011;38369;52.840;7.082;2022-12-18T01:24:46;107.93;;;42.85;;
52456;SDS011;38369;52.840;7.082;2022-12-18T01:27:12;106.90;;;46.15;;
52456;SDS011;38369;52.840;7.082;2022-12-18T01:29:38;106.00;;;39.63;;
52456;SDS011;38369;52.840;7.082;2022-12-18T01:32:04;96.10;;;42.08;;
52456;SDS011;38369;52.840;7.082;2022-12-18T01:34:30;95.00;;;39.30;;
52456;SDS011;38369;52.840;7.082;2022-12-18T01:36:56;82.95;;;35.20;;
52456;SDS011;38369;52.840;7.082;2022-12-18T01:39:22;94.68;;;37.72;;
52456;SDS011;38369;52.840;7.082;2022-12-18T01:41:49;93.43;;;36.08;;
52456;SDS011;38369;52.840;7.082;2022-12-18T01:44:51;78.20;;;36.53;;
52456;SDS011;38369;52.840;7.082;2022-12-18T01:47:35;75.93;;;34.75;;
52456;SDS011;38369;52.840;7.082;2022-12-18T01:50:05;62.00;;;25.83;;
52456;SDS011;38369;52.840;7.082;2022-12-18T01:52:32;79.50;;;35.20;;
52456;SDS011;38369;52.840;7.082;2022-12-18T01:54:59;79.25;;;31.15;;
52456;SDS011;38369;52.840;7.082;2022-12-18T01:57:26;83.63;;;34.92;;
52456;SDS011;38369;52.840;7.082;2022-12-18T01:59:53;78.72;;;31.30;;
52456;SDS011;38369;52.840;7.082;2022-12-18T02:02:20;92.97;;;35.60;;
52456;SDS011;38369;52.840;7.082;2022-12-18T02:04:46;90.65;;;35.35;;
52456;SDS011;38369;52.840;7.082;2022-12-18T02:09:44;93.40;;;36.67;;
52456;SDS011;38369;52.840;7.082;2022-12-18T02:12:19;81.20;;;34.10;;
52456;SDS011;38369;52.840;7.082;2022-12-18T02:27:27;93.55;;;39.67;;
52456;SDS011;38369;52.840;7.082;2022-12-18T02:29:56;97.13;;;38.90;;
52456;SDS011;38369;52.840;7.082;2022-12-18T02:32:27;88.53;;;34.80;;
52456;SDS011;38369;52.840;7.082;2022-12-18T02:34:54;89.85;;;35.97;;
52456;SDS011;38369;52.840;7.082;2022-12-18T02:37:22;89.07;;;38.67;;
52456;SDS011;38369;52.840;7.082;2022-12-18T02:39:49;91.68;;;36.65;;
52456;SDS011;38369;52.840;7.082;2022-12-18T02:42:16;90.50;;;37.38;;
52456;SDS011;38369;52.840;7.082;2022-12-18T02:44:46;82.22;;;33.25;;
52456;SDS011;38369;52.840;7.082;2022-12-18T02:47:13;84.50;;;34.40;;
52456;SDS011;38369;52.840;7.082;2022-12-18T02:52:28;75.22;;;33.65;;
52456;SDS011;38369;52.840;7.082;2022-12-18T02:57:36;77.97;;;32.70;;
52456;SDS011;38369;52.840;7.082;2022-12-18T03:00:06;82.60;;;34.55;;
52456;SDS011;38369;52.840;7.082;2022-12-18T03:07:34;77.50;;;35.85;;
52456;SDS011;38369;52.840;7.082;2022-12-18T03:10:03;74.57;;;33.58;;
52456;SDS011;38369;52.840;7.082;2022-12-18T03:12:31;77.80;;;31.98;;
52456;SDS011;38369;52.840;7.082;2022-12-18T03:15:06;77.05;;;34.40;;
52456;SDS011;38369;52.840;7.082;2022-12-18T03:17:33;70.63;;;30.92;;
52456;SDS011;38369;52.840;7.082;2022-12-18T03:20:03;77.70;;;32.05;;
52456;SDS011;38369;52.840;7.082;2022-12-18T03:22:30;74.95;;;32.28;;
52456;SDS011;38369;52.840;7.082;2022-12-18T03:24:57;61.38;;;29.42;;
52456;SDS011;38369;52.840;7.082;2022-12-18T03:27:25;66.03;;;30.75;;
52456;SDS011;38369;52.840;7.082;2022-12-18T03:29:54;71.45;;;31.55;;
52456;SDS011;38369;52.840;7.082;2022-12-18T03:32:25;63.67;;;28.40;;
52456;SDS011;38369;52.840;7.082;2022-12-18T03:34:53;67.07;;;30.42;;
52456;SDS011;38369;52.840;7.082;2022-12-18T03:37:21;72.60;;;30.15;;
52456;SDS011;38369;52.840;7.082;2022-12-18T03:39:47;71.25;;;31.17;;
52456;SDS011;38369;52.840;7.082;2022-12-18T03:44:58;63.25;;;30.70;;
52456;SDS011;38369;52.840;7.082;2022-12-18T03:50:14;65.28;;;29.70;;
52456;SDS011;38369;52.840;7.082;2022-12-18T03:52:48;64.43;;;30.67;;
52456;SDS011;38369;52.840;7.082;2022-12-18T03:55:16;67.90;;;30.58;;
52456;SDS011;38369;52.840;7.082;2022-12-18T03:57:43;55.63;;;30.00;;
52456;SDS011;38369;52.840;7.082;2022-12-18T04:00:11;57.03;;;27.10;;
52456;SDS011;38369;52.840;7.082;2022-12-18T04:02:38;63.20;;;29.20;;
52456;SDS011;38369;52.840;7.082;2022-12-18T04:05:06;65.45;;;30.02;;
52456;SDS011;38369;52.840;7.082;2022-12-18T04:07:33;54.25;;;27.92;;
52456;SDS011;38369;52.840;7.082;2022-12-18T04:09:59;65.50;;;28.77;;
52456;SDS011;38369;52.840;7.082;2022-12-18T04:12:28;63.70;;;29.83;;
52456;SDS011;38369;52.840;7.082;2022-12-18T04:14:54;61.53;;;27.48;;
52456;SDS011;38369;52.840;7.082;2022-12-18T04:17:20;64.13;;;31.45;;
52456;SDS011;38369;52.840;7.082;2022-12-18T04:19:46;64.03;;;29.13;;
52456;SDS011;38369;52.840;7.082;2022-12-18T04:22:12;55.50;;;26.23;;
52456;SDS011;38369;52.840;7.082;2022-12-18T04:24:38;56.55;;;24.92;;
52456;SDS011;38369;52.840;7.082;2022-12-18T04:27:04;59.97;;;27.88;;
52456;SDS011;38369;52.840;7.082;2022-12-18T04:29:30;63.08;;;31.02;;
52456;SDS011;38369;52.840;7.082;2022-12-18T04:31:57;53.55;;;26.85;;
52456;SDS011;38369;52.840;7.082;2022-12-18T04:34:23;57.70;;;28.13;;
52456;SDS011;38369;52.840;7.082;2022-12-18T04:36:49;50.70;;;26.50;;
52456;SDS011;38369;52.840;7.082;2022-12-18T04:39:15;55.22;;;27.52;;
52456;SDS011;38369;52.840;7.082;2022-12-18T04:41:41;48.97;;;25.90;;
52456;SDS011;38369;52.840;7.082;2022-12-18T04:44:07;51.50;;;26.27;;
52456;SDS011;38369;52.840;7.082;2022-12-18T04:46:33;55.75;;;29.17;;
52456;SDS011;38369;52.840;7.082;2022-12-18T04:48:59;62.40;;;29.10;;
52456;SDS011;38369;52.840;7.082;2022-12-18T04:51:25;54.13;;;29.05;;
52456;SDS011;38369;52.840;7.082;2022-12-18T04:53:51;46.15;;;24.67;;
52456;SDS011;38369;52.840;7.082;2022-12-18T04:56:17;50.33;;;26.73;;
52456;SDS011;38369;52.840;7.082;2022-12-18T04:58:44;51.92;;;26.48;;
52456;SDS011;38369;52.840;7.082;2022-12-18T05:01:11;51.10;;;28.17;;
52456;SDS011;38369;52.840;7.082;2022-12-18T05:03:37;49.78;;;25.90;;
52456;SDS011;38369;52.840;7.082;2022-12-18T05:06:04;49.50;;;25.85;;
52456;SDS011;38369;52.840;7.082;2022-12-18T05:08:30;52.92;;;24.85;;
52456;SDS011;38369;52.840;7.082;2022-12-18T05:11:00;50.15;;;24.80;;
52456;SDS011;38369;52.840;7.082;2022-12-18T05:13:26;52.10;;;27.42;;
52456;SDS011;38369;52.840;7.082;2022-12-18T05:15:52;45.55;;;24.75;;
52456;SDS011;38369;52.840;7.082;2022-12-18T05:18:18;46.92;;;24.40;;
52456;SDS011;38369;52.840;7.082;2022-12-18T05:20:44;52.88;;;26.30;;
52456;SDS011;38369;52.840;7.082;2022-12-18T05:23:10;48.90;;;26.48;;
52456;SDS011;38369;52.840;7.082;2022-12-18T05:25:37;53.28;;;24.75;;
52456;SDS011;38369;52.840;7.082;2022-12-18T05:28:03;49.45;;;24.85;;
52456;SDS011;38369;52.840;7.082;2022-12-18T05:30:29;54.03;;;27.13;;
52456;SDS011;38369;52.840;7.082;2022-12-18T05:32:55;47.55;;;26.23;;
52456;SDS011;38369;52.840;7.082;2022-12-18T05:35:21;50.30;;;25.75;;
52456;SDS011;38369;52.840;7.082;2022-12-18T05:37:47;53.33;;;25.63;;
52456;SDS011;38369;52.840;7.082;2022-12-18T05:40:13;54.60;;;27.08;;
52456;SDS011;38369;52.840;7.082;2022-12-18T05:42:39;51.85;;;24.77;;
52456;SDS011;38369;52.840;7.082;2022-12-18T05:45:05;51.22;;;24.38;;
52456;SDS011;38369;52.840;7.082;2022-12-18T05:47:32;54.80;;;26.02;;
52456;SDS011;38369;52.840;7.082;2022-12-18T05:49:59;46.20;;;25.50;;
52456;SDS011;38369;52.840;7.082;2022-12-18T05:52:25;56.70;;;26.30;;
52456;SDS011;38369;52.840;7.082;2022-12-18T05:54:51;52.90;;;24.83;;
52456;SDS011;38369;52.840;7.082;2022-12-18T05:57:17;47.17;;;25.50;;
52456;SDS011;38369;52.840;7.082;2022-12-18T05:59:43;49.38;;;24.05;;
52456;SDS011;38369;52.840;7.082;2022-12-18T06:02:09;54.25;;;26.25;;
52456;SDS011;38369;52.840;7.082;2022-12-18T06:04:35;46.08;;;24.00;;
52456;SDS011;38369;52.840;7.082;2022-12-18T06:07:01;47.97;;;25.10;;
52456;SDS011;38369;52.840;7.082;2022-12-18T06:09:28;44.95;;;23.60;;
52456;SDS011;38369;52.840;7.082;2022-12-18T06:11:54;47.25;;;25.58;;
52456;SDS011;38369;52.840;7.082;2022-12-18T06:14:20;43.60;;;23.10;;
52456;SDS011;38369;52.840;7.082;2022-12-18T06:16:46;46.80;;;22.58;;
52456;SDS011;38369;52.840;7.082;2022-12-18T06:19:15;48.80;;;24.35;;
52456;SDS011;38369;52.840;7.082;2022-12-18T06:21:42;44.10;;;23.20;;
52456;SDS011;38369;52.840;7.082;2022-12-18T06:24:08;49.15;;;24.10;;
52456;SDS011;38369;52.840;7.082;2022-12-18T06:26:36;48.55;;;23.05;;
52456;SDS011;38369;52.840;7.082;2022-12-18T06:29:02;45.50;;;22.48;;
52456;SDS011;38369;52.840;7.082;2022-12-18T06:31:28;48.13;;;23.45;;
52456;SDS011;38369;52.840;7.082;2022-12-18T06:33:54;44.65;;;22.95;;
52456;SDS011;38369;52.840;7.082;2022-12-18T06:36:20;42.05;;;22.00;;
52456;SDS011;38369;52.840;7.082;2022-12-18T06:38:46;38.38;;;22.13;;
52456;SDS011;38369;52.840;7.082;2022-12-18T06:41:18;39.67;;;20.98;;
52456;SDS011;38369;52.840;7.082;2022-12-18T06:43:44;38.45;;;21.77;;
52456;SDS011;38369;52.840;7.082;2022-12-18T06:46:10;43.05;;;24.10;;
52456;SDS011;38369;52.840;7.082;2022-12-18T06:48:37;41.05;;;21.80;;
52456;SDS011;38369;52.840;7.082;2022-12-18T06:51:03;47.50;;;24.25;;
52456;SDS011;38369;52.840;7.082;2022-12-18T06:53:29;36.83;;;21.17;;
52456;SDS011;38369;52.840;7.082;2022-12-18T06:56:02;47.33;;;23.08;;
52456;SDS011;38369;52.840;7.082;2022-12-18T06:58:29;41.30;;;22.08;;
52456;SDS011;38369;52.840;7.082;2022-12-18T07:01:01;42.58;;;22.00;;
52456;SDS011;38369;52.840;7.082;2022-12-18T07:03:28;38.25;;;22.00;;
52456;SDS011;38369;52.840;7.082;2022-12-18T07:05:54;45.67;;;22.52;;
52456;SDS011;38369;52.840;7.082;2022-12-18T07:08:20;40.17;;;21.92;;
52456;SDS011;38369;52.840;7.082;2022-12-18T07:10:46;38.08;;;22.63;;
52456;SDS011;38369;52.840;7.082;2022-12-18T07:13:14;46.17;;;20.42;;
52456;SDS011;38369;52.840;7.082;2022-12-18T07:15:40;41.08;;;22.42;;
52456;SDS011;38369;52.840;7.082;2022-12-18T07:18:06;42.22;;;21.65;;
52456;SDS011;38369;52.840;7.082;2022-12-18T07:20:32;32.45;;;18.77;;
52456;SDS011;38369;52.840;7.082;2022-12-18T07:22:58;33.30;;;18.98;;
52456;SDS011;38369;52.840;7.082;2022-12-18T07:25:24;32.13;;;19.13;;
52456;SDS011;38369;52.840;7.082;2022-12-18T07:27:50;38.70;;;20.75;;
52456;SDS011;38369;52.840;7.082;2022-12-18T07:30:16;35.63;;;20.13;;
52456;SDS011;38369;52.840;7.082;2022-12-18T07:32:42;39.05;;;21.80;;
52456;SDS011;38369;52.840;7.082;2022-12-18T07:35:08;36.05;;;20.05;;
52456;SDS011;38369;52.840;7.082;2022-12-18T07:37:35;32.92;;;18.77;;
52456;SDS011;38369;52.840;7.082;2022-12-18T07:40:01;35.45;;;20.00;;
52456;SDS011;38369;52.840;7.082;2022-12-18T07:42:27;32.88;;;18.75;;
52456;SDS011;38369;52.840;7.082;2022-12-18T07:44:56;32.50;;;19.65;;
52456;SDS011;38369;52.840;7.082;2022-12-18T07:47:22;32.90;;;18.42;;
52456;SDS011;38369;52.840;7.082;2022-12-18T07:49:48;32.30;;;18.40;;
52456;SDS011;38369;52.840;7.082;2022-12-18T07:52:14;29.92;;;17.90;;
52456;SDS011;38369;52.840;7.082;2022-12-18T07:54:40;33.00;;;16.73;;
52456;SDS011;38369;52.840;7.082;2022-12-18T07:57:07;28.60;;;17.83;;
52456;SDS011;38369;52.840;7.082;2022-12-18T07:59:33;29.98;;;16.42;;
52456;SDS011;38369;52.840;7.082;2022-12-18T08:01:59;32.40;;;20.65;;
52456;SDS011;38369;52.840;7.082;2022-12-18T08:04:26;29.27;;;17.73;;
52456;SDS011;38369;52.840;7.082;2022-12-18T08:06:52;30.45;;;16.83;;
52456;SDS011;38369;52.840;7.082;2022-12-18T08:09:18;27.70;;;17.63;;
52456;SDS011;38369;52.840;7.082;2022-12-18T08:11:44;29.25;;;17.20;;
52456;SDS011;38369;52.840;7.082;2022-12-18T08:14:10;28.88;;;17.02;;
52456;SDS011;38369;52.840;7.082;2022-12-18T08:16:36;32.58;;;17.33;;
52456;SDS011;38369;52.840;7.082;2022-12-18T08:19:02;26.65;;;16.92;;
52456;SDS011;38369;52.840;7.082;2022-12-18T08:21:30;25.05;;;16.60;;
52456;SDS011;38369;52.840;7.082;2022-12-18T08:23:59;30.75;;;16.48;;
52456;SDS011;38369;52.840;7.082;2022-12-18T08:26:26;25.60;;;16.85;;
52456;SDS011;38369;52.840;7.082;2022-12-18T08:28:53;28.27;;;17.38;;
52456;SDS011;38369;52.840;7.082;2022-12-18T08:31:20;29.40;;;18.02;;
52456;SDS011;38369;52.840;7.082;2022-12-18T08:33:47;31.33;;;16.63;;
52456;SDS011;38369;52.840;7.082;2022-12-18T08:36:14;24.73;;;15.90;;
52456;SDS011;38369;52.840;7.082;2022-12-18T08:38:40;23.58;;;15.80;;
52456;SDS011;38369;52.840;7.082;2022-12-18T08:41:07;28.20;;;15.27;;
52456;SDS011;38369;52.840;7.082;2022-12-18T08:43:33;28.45;;;15.88;;
52456;SDS011;38369;52.840;7.082;2022-12-18T08:46:18;26.30;;;16.77;;
52456;SDS011;38369;52.840;7.082;2022-12-18T08:48:45;25.73;;;15.00;;
52456;SDS011;38369;52.840;7.082;2022-12-18T08:51:11;24.90;;;14.82;;
52456;SDS011;38369;52.840;7.082;2022-12-18T08:53:37;22.67;;;14.38;;
52456;SDS011;38369;52.840;7.082;2022-12-18T08:56:04;20.33;;;13.35;;
52456;SDS011;38369;52.840;7.082;2022-12-18T08:58:30;26.02;;;16.25;;
52456;SDS011;38369;52.840;7.082;2022-12-18T09:01:00;20.77;;;12.35;;
52456;SDS011;38369;52.840;7.082;2022-12-18T09:03:27;25.85;;;14.15;;
52456;SDS011;38369;52.840;7.082;2022-12-18T09:05:53;25.77;;;14.63;;
52456;SDS011;38369;52.840;7.082;2022-12-18T09:08:19;21.90;;;13.27;;
52456;SDS011;38369;52.840;7.082;2022-12-18T09:10:45;19.67;;;13.68;;
52456;SDS011;38369;52.840;7.082;2022-12-18T09:13:12;20.10;;;13.38;;
52456;SDS011;38369;52.840;7.082;2022-12-18T09:15:49;21.65;;;13.93;;
52456;SDS011;38369;52.840;7.082;2022-12-18T09:18:16;21.38;;;12.70;;
52456;SDS011;38369;52.840;7.082;2022-12-18T09:20:43;20.23;;;13.07;;
52456;SDS011;38369;52.840;7.082;2022-12-18T09:23:09;22.33;;;13.88;;
52456;SDS011;38369;52.840;7.082;2022-12-18T09:25:35;20.10;;;12.73;;
52456;SDS011;38369;52.840;7.082;2022-12-18T09:28:02;18.83;;;12.40;;
52456;SDS011;38369;52.840;7.082;2022-12-18T09:30:29;18.60;;;11.68;;
52456;SDS011;38369;52.840;7.082;2022-12-18T09:32:55;18.13;;;11.30;;
52456;SDS011;38369;52.840;7.082;2022-12-18T09:35:21;17.63;;;12.50;;
52456;SDS011;38369;52.840;7.082;2022-12-18T09:37:47;18.63;;;11.77;;
52456;SDS011;38369;52.840;7.082;2022-12-18T09:40:17;22.15;;;12.82;;
52456;SDS011;38369;52.840;7.082;2022-12-18T09:42:44;17.45;;;10.95;;
52456;SDS011;38369;52.840;7.082;2022-12-18T09:45:12;17.08;;;11.30;;
52456;SDS011;38369;52.840;7.082;2022-12-18T09:47:39;19.27;;;10.98;;
52456;SDS011;38369;52.840;7.082;2022-12-18T09:50:16;18.92;;;11.70;;
52456;SDS011;38369;52.840;7.082;2022-12-18T09:52:44;17.88;;;10.63;;
52456;SDS011;38369;52.840;7.082;2022-12-18T09:57:45;18.70;;;11.45;;
52456;SDS011;38369;52.840;7.082;2022-12-18T10:00:23;17.30;;;10.13;;
52456;SDS011;38369;52.840;7.082;2022-12-18T10:02:53;17.85;;;10.70;;
52456;SDS011;38369;52.840;7.082;2022-12-18T10:07:58;16.77;;;10.00;;
52456;SDS011;38369;52.840;7.082;2022-12-18T10:10:38;15.65;;;9.70;;
52456;SDS011;38369;52.840;7.082;2022-12-18T10:13:08;12.48;;;8.45;;
52456;SDS011;38369;52.840;7.082;2022-12-18T10:18:18;16.00;;;9.35;;
52456;SDS011;38369;52.840;7.082;2022-12-18T10:20:49;12.82;;;9.18;;
52456;SDS011;38369;52.840;7.082;2022-12-18T10:28:13;13.82;;;7.90;;
52456;SDS011;38369;52.840;7.082;2022-12-18T10:30:40;14.52;;;9.25;;
52456;SDS011;38369;52.840;7.082;2022-12-18T10:33:17;12.27;;;8.05;;
52456;SDS011;38369;52.840;7.082;2022-12-18T10:35:43;12.93;;;8.00;;
52456;SDS011;38369;52.840;7.082;2022-12-18T10:40:55;12.02;;;7.95;;
52456;SDS011;38369;52.840;7.082;2022-12-18T10:48:38;10.05;;;7.55;;
52456;SDS011;38369;52.840;7.082;2022-12-18T10:51:05;15.70;;;9.20;;
52456;SDS011;38369;52.840;7.082;2022-12-18T10:53:33;10.60;;;7.65;;
52456;SDS011;38369;52.840;7.082;2022-12-18T10:56:00;13.38;;;8.75;;
52456;SDS011;38369;52.840;7.082;2022-12-18T11:01:07;11.52;;;8.48;;
52456;SDS011;38369;52.840;7.082;2022-12-18T11:03:35;13.30;;;7.82;;
52456;SDS011;38369;52.840;7.082;2022-12-18T11:06:03;12.32;;;7.85;;
52456;SDS011;38369;52.840;7.082;2022-12-18T11:08:29;14.68;;;8.60;;
52456;SDS011;38369;52.840;7.082;2022-12-18T11:10:55;12.57;;;7.55;;
52456;SDS011;38369;52.840;7.082;2022-12-18T11:13:22;12.75;;;9.30;;
52456;SDS011;38369;52.840;7.082;2022-12-18T11:15:49;12.48;;;7.80;;
52456;SDS011;38369;52.840;7.082;2022-12-18T11:18:25;12.13;;;8.30;;
52456;SDS011;38369;52.840;7.082;2022-12-18T11:20:57;13.80;;;8.20;;
52456;SDS011;38369;52.840;7.082;2022-12-18T11:23:24;13.25;;;9.15;;
52456;SDS011;38369;52.840;7.082;2022-12-18T11:26:01;15.07;;;9.18;;
52456;SDS011;38369;52.840;7.082;2022-12-18T11:28:38;14.70;;;9.60;;
52456;SDS011;38369;52.840;7.082;2022-12-18T11:33:38;16.75;;;10.10;;
52456;SDS011;38369;52.840;7.082;2022-12-18T11:36:07;14.85;;;9.15;;
52456;SDS011;38369;52.840;7.082;2022-12-18T11:38:37;14.95;;;10.57;;
52456;SDS011;38369;52.840;7.082;2022-12-18T11:43:38;14.75;;;8.57;;
52456;SDS011;38369;52.840;7.082;2022-12-18T11:46:23;14.65;;;10.40;;
52456;SDS011;38369;52.840;7.082;2022-12-18T11:48:52;22.13;;;11.05;;
52456;SDS011;38369;52.840;7.082;2022-12-18T11:54:13;18.88;;;12.75;;
52456;SDS011;38369;52.840;7.082;2022-12-18T11:56:43;14.52;;;8.93;;
52456;SDS011;38369;52.840;7.082;2022-12-18T11:59:18;13.45;;;9.02;;
52456;SDS011;38369;52.840;7.082;2022-12-18T12:02:30;13.20;;;9.07;;
52456;SDS011;38369;52.840;7.082;2022-12-18T12:17:44;16.38;;;10.43;;
52456;SDS011;38369;52.840;7.082;2022-12-18T12:20:18;14.32;;;9.02;;
52456;SDS011;38369;52.840;7.082;2022-12-18T12:22:55;16.15;;;9.75;;
52456;SDS011;38369;52.840;7.082;2022-12-18T12:25:37;16.50;;;10.55;;
52456;SDS011;38369;52.840;7.082;2022-12-18T12:30:56;15.65;;;10.20;;
52456;SDS011;38369;52.840;7.082;2022-12-18T12:38:34;17.10;;;10.35;;
52456;SDS011;38369;52.840;7.082;2022-12-18T12:41:02;15.20;;;10.35;;
52456;SDS011;38369;52.840;7.082;2022-12-18T12:43:42;14.23;;;8.93;;
52456;SDS011;38369;52.840;7.082;2022-12-18T12:46:10;15.27;;;10.02;;
52456;SDS011;38369;52.840;7.082;2022-12-18T12:53:41;13.45;;;9.02;;
52456;SDS011;38369;52.840;7.082;2022-12-18T12:56:07;17.90;;;9.73;;
52456;SDS011;38369;52.840;7.082;2022-12-18T13:01:08;17.80;;;10.95;;
52456;SDS011;38369;52.840;7.082;2022-12-18T13:06:08;14.70;;;9.73;;
52456;SDS011;38369;52.840;7.082;2022-12-18T13:08:52;14.65;;;9.90;;
52456;SDS011;38369;52.840;7.082;2022-12-18T13:11:38;16.00;;;10.30;;
52456;SDS011;38369;52.840;7.082;2022-12-18T13:14:44;18.67;;;11.68;;
52456;SDS011;38369;52.840;7.082;2022-12-18T13:19:50;15.60;;;11.18;;
52456;SDS011;38369;52.840;7.082;2022-12-18T13:22:24;18.58;;;11.63;;
52456;SDS011;38369;52.840;7.082;2022-12-18T13:24:50;16.05;;;11.75;;
52456;SDS011;38369;52.840;7.082;2022-12-18T13:30:11;20.02;;;11.32;;
52456;SDS011;38369;52.840;7.082;2022-12-18T13:32:48;21.67;;;12.85;;
52456;SDS011;38369;52.840;7.082;2022-12-18T13:35:38;19.55;;;11.98;;
52456;SDS011;38369;52.840;7.082;2022-12-18T13:38:18;18.75;;;13.23;;
52456;SDS011;38369;52.840;7.082;2022-12-18T13:46:06;17.88;;;11.95;;
52456;SDS011;38369;52.840;7.082;2022-12-18T13:48:36;20.83;;;13.23;;
52456;SDS011;38369;52.840;7.082;2022-12-18T13:51:05;17.38;;;12.18;;
52456;SDS011;38369;52.840;7.082;2022-12-18T13:56:31;19.92;;;12.57;;
52456;SDS011;38369;52.840;7.082;2022-12-18T13:59:19;21.55;;;12.80;;
52456;SDS011;38369;52.840;7.082;2022-12-18T14:01:46;20.13;;;12.25;;
52456;SDS011;38369;52.840;7.082;2022-12-18T14:04:29;21.55;;;13.43;;
52456;SDS011;38369;52.840;7.082;2022-12-18T14:07:03;21.98;;;12.32;;
52456;SDS011;38369;52.840;7.082;2022-12-18T14:09:30;19.40;;;12.88;;
52456;SDS011;38369;52.840;7.082;2022-12-18T14:11:57;18.25;;;12.50;;
52456;SDS011;38369;52.840;7.082;2022-12-18T14:14:46;16.20;;;11.50;;
52456;SDS011;38369;52.840;7.082;2022-12-18T14:17:13;21.63;;;12.75;;
52456;SDS011;38369;52.840;7.082;2022-12-18T14:19:43;22.17;;;13.43;;
52456;SDS011;38369;52.840;7.082;2022-12-18T14:22:18;20.15;;;12.85;;
52456;SDS011;38369;52.840;7.082;2022-12-18T14:24:44;21.40;;;12.77;;
52456;SDS011;38369;52.840;7.082;2022-12-18T14:27:21;19.83;;;12.93;;
52456;SDS011;38369;52.840;7.082;2022-12-18T14:29:48;15.93;;;10.85;;
52456;SDS011;38369;52.840;7.082;2022-12-18T14:32:18;18.10;;;11.45;;
52456;SDS011;38369;52.840;7.082;2022-12-18T14:34:48;17.48;;;11.32;;
52456;SDS011;38369;52.840;7.082;2022-12-18T14:39:51;19.25;;;11.07;;
52456;SDS011;38369;52.840;7.082;2022-12-18T14:42:17;20.73;;;11.80;;
52456;SDS011;38369;52.840;7.082;2022-12-18T14:44:43;16.92;;;12.27;;
52456;SDS011;38369;52.840;7.082;2022-12-18T14:47:13;17.52;;;12.80;;
52456;SDS011;38369;52.840;7.082;2022-12-18T14:49:39;19.02;;;11.43;;
52456;SDS011;38369;52.840;7.082;2022-12-18T14:52:17;29.95;;;13.13;;
52456;SDS011;38369;52.840;7.082;2022-12-18T14:54:46;18.33;;;11.88;;
52456;SDS011;38369;52.840;7.082;2022-12-18T14:57:21;17.85;;;11.63;;
52456;SDS011;38369;52.840;7.082;2022-12-18T14:59:48;17.20;;;10.68;;
52456;SDS011;38369;52.840;7.082;2022-12-18T15:04:40;15.60;;;11.45;;
52456;SDS011;38369;52.840;7.082;2022-12-18T15:07:21;18.10;;;12.82;;
52456;SDS011;38369;52.840;7.082;2022-12-18T15:12:36;17.67;;;11.40;;
52456;SDS011;38369;52.840;7.082;2022-12-18T15:15:03;19.50;;;14.13;;
52456;SDS011;38369;52.840;7.082;2022-12-18T15:17:29;18.38;;;11.52;;
52456;SDS011;38369;52.840;7.082;2022-12-18T15:19:59;17.23;;;11.55;;
52456;SDS011;38369;52.840;7.082;2022-12-18T15:22:29;17.27;;;11.63;;
52456;SDS011;38369;52.840;7.082;2022-12-18T15:24:56;18.38;;;11.48;;
52456;SDS011;38369;52.840;7.082;2022-12-18T15:27:24;19.58;;;12.60;;
52456;SDS011;38369;52.840;7.082;2022-12-18T15:32:39;21.58;;;12.10;;
52456;SDS011;38369;52.840;7.082;2022-12-18T15:37:34;16.33;;;10.88;;
52456;SDS011;38369;52.840;7.082;2022-12-18T15:40:00;17.13;;;11.55;;
52456;SDS011;38369;52.840;7.082;2022-12-18T15:42:27;16.70;;;11.55;;
52456;SDS011;38369;52.840;7.082;2022-12-18T15:45:12;17.27;;;12.02;;
52456;SDS011;38369;52.840;7.082;2022-12-18T15:47:38;15.35;;;10.38;;
52456;SDS011;38369;52.840;7.082;2022-12-18T15:50:05;15.05;;;11.85;;
52456;SDS011;38369;52.840;7.082;2022-12-18T15:52:32;15.93;;;11.55;;
52456;SDS011;38369;52.840;7.082;2022-12-18T15:55:01;15.45;;;11.88;;
52456;SDS011;38369;52.840;7.082;2022-12-18T15:57:45;14.93;;;9.27;;
52456;SDS011;38369;52.840;7.082;2022-12-18T16:00:12;14.25;;;10.45;;
52456;SDS011;38369;52.840;7.082;2022-12-18T16:02:38;16.08;;;10.77;;
52456;SDS011;38369;52.840;7.082;2022-12-18T16:05:08;17.25;;;10.80;;
52456;SDS011;38369;52.840;7.082;2022-12-18T16:07:36;13.95;;;10.55;;
52456;SDS011;38369;52.840;7.082;2022-12-18T16:10:02;17.67;;;11.63;;
52456;SDS011;38369;52.840;7.082;2022-12-18T16:12:28;17.25;;;12.50;;
52456;SDS011;38369;52.840;7.082;2022-12-18T16:14:54;21.25;;;11.38;;
52456;SDS011;38369;52.840;7.082;2022-12-18T16:17:20;16.23;;;10.68;;
52456;SDS011;38369;52.840;7.082;2022-12-18T16:19:46;15.50;;;10.07;;
52456;SDS011;38369;52.840;7.082;2022-12-18T16:22:22;14.80;;;10.52;;
52456;SDS011;38369;52.840;7.082;2022-12-18T16:24:49;14.20;;;10.15;;
52456;SDS011;38369;52.840;7.082;2022-12-18T16:27:16;15.38;;;9.52;;
52456;SDS011;38369;52.840;7.082;2022-12-18T16:29:42;13.60;;;9.30;;